NCAR-RAP Real-Time Weather Data

Output produced by METARs form (23 February 2020  02:00 UTC)
found at http://weather.rap.ucar.edu/surface/
 
KDTW 230153Z 20009KT 10SM FEW250 02/M04 A3016 RMK AO2 SLP219 T00221044 $
KDTW 230053Z 20007KT 10SM FEW250 03/M05 A3016 RMK AO2 SLP221 T00281050 $
KDTW 222353Z 20008KT 10SM FEW250 04/M04 A3015 RMK AO2 SLP218 T00441044 10083 20033 56005 $
KDTW 222253Z 24010KT 10SM CLR 07/M04 A3015 RMK AO2 SLP217 T00671044 $
KDTW 222153Z 23017KT 10SM CLR 08/M04 A3017 RMK AO2 SLP221 T00781044 $
KDTW 222053Z 25013G28KT 10SM CLR 08/M04 A3017 RMK AO2 PK WND 24028/2049 SLP222 T00781044 $
KDTW 221953Z 24017G23KT 10SM CLR 08/M04 A3017 RMK AO2 SLP224 T00781044 $
KDTW 221853Z 22015KT 10SM CLR 07/M05 A3019 RMK AO2 SLP230 T00671050 VISNO 3L $
KDTW 221753Z 24013KT 10SM CLR 06/M06 A3021 RMK AO2 SLP235 T00561061 10061 21044 58017
KDTW 221653Z 22012G18KT 10SM CLR 04/M07 A3023 RMK AO2 SLP243 T00391072
KDTW 221553Z 23015KT 10SM FEW200 02/M08 A3025 RMK AO2 SLP250 T00221078
KDTW 221453Z 22014KT 10SM FEW200 00/M09 A3026 RMK AO2 SLP254 T00001089 58000
KDTW 221353Z 21012KT 10SM FEW200 M02/M09 A3027 RMK AO2 SLP257 T10221094
KDTW 221253Z 21010KT 10SM FEW200 M04/M09 A3026 RMK AO2 SLP255 T10441094
KDTW 221153Z 22012KT 10SM CLR M04/M09 A3026 RMK AO2 SLP255 T10391094 11022 21044 56001
KDTW 221053Z 21009KT 10SM CLR M04/M09 A3026 RMK AO2 SLP255 T10441094
KDTW 220953Z 22010KT 10SM CLR M04/M10 A3026 RMK AO2 SLP256 T10391100
KDTW 220853Z 23011KT 10SM CLR M04/M10 A3026 RMK AO2 SLP255 T10391100 58009
KDTW 220753Z 23010KT 10SM CLR M03/M11 A3028 RMK AO2 SLP260 T10331106
KDTW 220653Z 24015KT 10SM CLR M03/M11 A3029 RMK AO2 SLP263 T10281106
KDTW 220553Z 24016G23KT 10SM CLR M02/M10 A3029 RMK AO2 SLP266 T10221100 10000 21022 55008
KDTW 220453Z 23017G24KT 10SM CLR M02/M10 A3029 RMK AO2 PK WND 24027/0425 SLP264 T10221100 400221100
KDTW 220353Z 22015KT 10SM CLR M02/M09 A3030 RMK AO2 PK WND 22027/0336 SLP270 T10171094
KDTW 220253Z 22016KT 10SM CLR M02/M10 A3032 RMK AO2 SLP276 T10171100 58014
KDTW 220153Z 21015KT 10SM CLR M02/M10 A3033 RMK AO2 SLP281 T10171100
KDTW 220053Z 22014KT 10SM CLR M01/M11 A3036 RMK AO2 SLP291 T10061111
KDTW 212353Z 21015KT 10SM CLR 00/M12 A3036 RMK AO2 SLP291 T00001122 10022 20000 56015
KDTW 212253Z 22019KT 10SM CLR 01/M13 A3037 RMK AO2 PK WND 22027/2240 SLP293 T00061128
KDTW 212153Z 23018KT 10SM CLR 02/M13 A3039 RMK AO2 SLP299 T00171128
KDTW 212053Z 23019G22KT 10SM CLR 02/M12 A3040 RMK AO2 PK WND 23026/1956 SLP305 T00221122 57033
KDTW 211953Z 25015KT 10SM CLR 02/M13 A3044 RMK AO2 SLP316 T00171128
KDTW 211853Z 23017KT 10SM CLR 01/M12 A3047 RMK AO2 SLP327 T00111117
KDTW 211753Z 25012KT 10SM CLR 00/M12 A3050 RMK AO2 SLP338 T00001117 10000 21100 58017
KDTW 211653Z 24013G20KT 10SM CLR M01/M11 A3054 RMK AO2 SLP350 T10111111
KDTW 211553Z 23009KT 10SM CLR M03/M11 A3055 RMK AO2 SLP356 T10331106
KDTW 211453Z 26009KT 10SM CLR M05/M11 A3055 RMK AO2 SLP357 T10501106 53002
KDTW 211353Z 24010KT 10SM CLR M07/M12 A3055 RMK AO2 SLP356 T10721117
KDTW 211253Z 24008KT 10SM CLR M09/M12 A3055 RMK AO2 SLP357 T10941122
KDTW 211153Z 22007KT 10SM CLR M10/M13 A3055 RMK AO2 SLP357 T11001128 11083 21100 58001
KDTW 211053Z 23008KT 10SM CLR M10/M13 A3056 RMK AO2 SLP358 T11001128
KDTW 210953Z 23007KT 10SM CLR M10/M13 A3055 RMK AO2 SLP357 T11001128
KDTW 210853Z 22008KT 10SM CLR M09/M13 A3055 RMK AO2 SLP356 T10941128 58010
KDTW 210753Z 28007KT 10SM CLR M09/M13 A3057 RMK AO2 SLP362 T10941133
KDTW 210653Z 28009KT 10SM CLR M09/M13 A3058 RMK AO2 SLP365 T10891133
KDTW 210553Z 28008KT 10SM CLR M08/M14 A3058 RMK AO2 SLP367 T10831139 11067 21083 58007
KDTW 210453Z 25006KT 10SM CLR M08/M14 A3059 RMK AO2 SLP370 T10781139 410281089
KDTW 210353Z 26003KT 10SM CLR M07/M15 A3060 RMK AO2 SLP372 T10721150
KDTW 210253Z 30003KT 10SM CLR M07/M16 A3060 RMK AO2 SLP374 T10671156 51005